<?xml version="1.0" encoding="UTF-8" standalone="no" ?>
<gpx xmlns="http://www.topografix.com/GPX/1/1" xmlns:xsi="http://www.w3.org/2001/XMLSchema-instance" xsi:schemaLocation="http://www.topografix.com/GPX/1/1 http://www.topografix.com/GPX/1/1/gpx.xsd" version="1.1" creator="VisuGPX - https://www.visugpx.com">
  <metadata>
    <name>Vallet_ChateauNoeCoteaux_</name>
    <desc><![CDATA[idor: 5410043_5409798_6463907_7386552 gnerando]]></desc>
  </metadata>
  <trk>
    <name><![CDATA[Vallet_Coteaux_12.4km-7386552]]></name>
    <extensions>
      <line xmlns="http://www.topografix.com/GPX/gpx_style/0/2">
        <color>FF0000</color>
        <width>4</width>
      </line>
    </extensions>
    <trkseg>
      <trkpt lat="47.16707" lon="-1.2666">
        <ele>74</ele>
        <time>2023-11-14T05:49:12Z</time>
      </trkpt>
      <trkpt lat="47.16757" lon="-1.26647">
        <ele>75</ele>
        <time>2023-11-14T05:50:20Z</time>
      </trkpt>
      <trkpt lat="47.1674" lon="-1.26527">
        <ele>73</ele>
        <time>2023-11-14T05:52:11Z</time>
      </trkpt>
      <trkpt lat="47.16649" lon="-1.26467">
        <ele>70</ele>
        <time>2023-11-14T05:54:24Z</time>
      </trkpt>
      <trkpt lat="47.16573" lon="-1.26514">
        <ele>66</ele>
        <time>2023-11-14T05:56:14Z</time>
      </trkpt>
      <trkpt lat="47.16494" lon="-1.26596">
        <ele>62</ele>
        <time>2023-11-14T05:58:23Z</time>
      </trkpt>
      <trkpt lat="47.16413" lon="-1.26651">
        <ele>62</ele>
        <time>2023-11-14T06:00:22Z</time>
      </trkpt>
      <trkpt lat="47.16311" lon="-1.26531">
        <ele>58</ele>
        <time>2023-11-14T06:03:16Z</time>
      </trkpt>
      <trkpt lat="47.16459" lon="-1.26381">
        <ele>60</ele>
        <time>2023-11-14T06:07:16Z</time>
      </trkpt>
      <trkpt lat="47.16401" lon="-1.26278">
        <ele>58</ele>
        <time>2023-11-14T06:09:18Z</time>
      </trkpt>
      <trkpt lat="47.16404" lon="-1.26214">
        <ele>57</ele>
        <time>2023-11-14T06:10:16Z</time>
      </trkpt>
      <trkpt lat="47.16255" lon="-1.26102">
        <ele>51</ele>
        <time>2023-11-14T06:13:59Z</time>
      </trkpt>
      <trkpt lat="47.16185" lon="-1.26016">
        <ele>47</ele>
        <time>2023-11-14T06:16:01Z</time>
      </trkpt>
      <trkpt lat="47.16063" lon="-1.25995">
        <ele>40</ele>
        <time>2023-11-14T06:18:45Z</time>
      </trkpt>
      <trkpt lat="47.16025" lon="-1.26076">
        <ele>41</ele>
        <time>2023-11-14T06:20:14Z</time>
      </trkpt>
      <trkpt lat="47.16019" lon="-1.26295">
        <ele>45</ele>
        <time>2023-11-14T06:23:33Z</time>
      </trkpt>
      <trkpt lat="47.15835" lon="-1.26209">
        <ele>34</ele>
        <time>2023-11-14T06:27:51Z</time>
      </trkpt>
      <trkpt lat="47.15718" lon="-1.26171">
        <ele>33</ele>
        <time>2023-11-14T06:30:30Z</time>
      </trkpt>
      <trkpt lat="47.15526" lon="-1.26308">
        <ele>35</ele>
        <time>2023-11-14T06:35:15Z</time>
      </trkpt>
      <trkpt lat="47.15461" lon="-1.26381">
        <ele>37</ele>
        <time>2023-11-14T06:37:04Z</time>
      </trkpt>
      <trkpt lat="47.15415" lon="-1.26501">
        <ele>37</ele>
        <time>2023-11-14T06:39:09Z</time>
      </trkpt>
      <trkpt lat="47.15283" lon="-1.26694">
        <ele>36</ele>
        <time>2023-11-14T06:43:18Z</time>
      </trkpt>
      <trkpt lat="47.15114" lon="-1.26703">
        <ele>38</ele>
        <time>2023-11-14T06:47:03Z</time>
      </trkpt>
      <trkpt lat="47.15015" lon="-1.26681">
        <ele>40</ele>
        <time>2023-11-14T06:49:17Z</time>
      </trkpt>
      <trkpt lat="47.14892" lon="-1.26716">
        <ele>37</ele>
        <time>2023-11-14T06:52:04Z</time>
      </trkpt>
      <trkpt lat="47.14773" lon="-1.26965">
        <ele>40</ele>
        <time>2023-11-14T06:56:40Z</time>
      </trkpt>
      <trkpt lat="47.14583" lon="-1.26845">
        <ele>52</ele>
        <time>2023-11-14T07:01:16Z</time>
      </trkpt>
      <trkpt lat="47.14431" lon="-1.26806">
        <ele>55</ele>
        <time>2023-11-14T07:04:42Z</time>
      </trkpt>
      <trkpt lat="47.14148" lon="-1.26815">
        <ele>45</ele>
        <time>2023-11-14T07:11:00Z</time>
      </trkpt>
      <trkpt lat="47.14049" lon="-1.26746">
        <ele>45</ele>
        <time>2023-11-14T07:13:26Z</time>
      </trkpt>
      <trkpt lat="47.13976" lon="-1.26733">
        <ele>43</ele>
        <time>2023-11-14T07:15:04Z</time>
      </trkpt>
      <trkpt lat="47.13853" lon="-1.26656">
        <ele>40</ele>
        <time>2023-11-14T07:18:03Z</time>
      </trkpt>
      <trkpt lat="47.13815" lon="-1.26553">
        <ele>40</ele>
        <time>2023-11-14T07:19:49Z</time>
      </trkpt>
      <trkpt lat="47.13833" lon="-1.26437">
        <ele>44</ele>
        <time>2023-11-14T07:21:37Z</time>
      </trkpt>
      <trkpt lat="47.13789" lon="-1.26235">
        <ele>45</ele>
        <time>2023-11-14T07:24:50Z</time>
      </trkpt>
      <trkpt lat="47.13745" lon="-1.25785">
        <ele>51</ele>
        <time>2023-11-14T07:31:42Z</time>
      </trkpt>
      <trkpt lat="47.13847" lon="-1.25737">
        <ele>53</ele>
        <time>2023-11-14T07:34:05Z</time>
      </trkpt>
      <trkpt lat="47.13912" lon="-1.25724">
        <ele>55</ele>
        <time>2023-11-14T07:35:33Z</time>
      </trkpt>
      <trkpt lat="47.13944" lon="-1.25364">
        <ele>41</ele>
        <time>2023-11-14T07:41:02Z</time>
      </trkpt>
      <trkpt lat="47.14034" lon="-1.25321">
        <ele>46</ele>
        <time>2023-11-14T07:43:09Z</time>
      </trkpt>
      <trkpt lat="47.14046" lon="-1.25154">
        <ele>52</ele>
        <time>2023-11-14T07:45:41Z</time>
      </trkpt>
      <trkpt lat="47.1409" lon="-1.24956">
        <ele>52</ele>
        <time>2023-11-14T07:48:50Z</time>
      </trkpt>
      <trkpt lat="47.14256" lon="-1.24926">
        <ele>58</ele>
        <time>2023-11-14T07:52:33Z</time>
      </trkpt>
      <trkpt lat="47.14417" lon="-1.24952">
        <ele>66</ele>
        <time>2023-11-14T07:56:10Z</time>
      </trkpt>
      <trkpt lat="47.14455" lon="-1.24497">
        <ele>56</ele>
        <time>2023-11-14T08:03:06Z</time>
      </trkpt>
      <trkpt lat="47.14638" lon="-1.2436">
        <ele>64</ele>
        <time>2023-11-14T08:07:40Z</time>
      </trkpt>
      <trkpt lat="47.14554" lon="-1.24016">
        <ele>70</ele>
        <time>2023-11-14T08:13:11Z</time>
      </trkpt>
      <trkpt lat="47.1458" lon="-1.23768">
        <ele>69</ele>
        <time>2023-11-14T08:16:59Z</time>
      </trkpt>
      <trkpt lat="47.1472" lon="-1.2381">
        <ele>72</ele>
        <time>2023-11-14T08:20:10Z</time>
      </trkpt>
      <trkpt lat="47.14869" lon="-1.23682">
        <ele>77</ele>
        <time>2023-11-14T08:24:00Z</time>
      </trkpt>
      <trkpt lat="47.15021" lon="-1.23639">
        <ele>79</ele>
        <time>2023-11-14T08:27:27Z</time>
      </trkpt>
      <trkpt lat="47.15202" lon="-1.23609">
        <ele>78</ele>
        <time>2023-11-14T08:31:30Z</time>
      </trkpt>
      <trkpt lat="47.15488" lon="-1.23738">
        <ele>75</ele>
        <time>2023-11-14T08:38:09Z</time>
      </trkpt>
      <trkpt lat="47.15488" lon="-1.23956">
        <ele>75</ele>
        <time>2023-11-14T08:41:27Z</time>
      </trkpt>
      <trkpt lat="47.15438" lon="-1.24021">
        <ele>77</ele>
        <time>2023-11-14T08:42:56Z</time>
      </trkpt>
      <trkpt lat="47.15333" lon="-1.24029">
        <ele>76</ele>
        <time>2023-11-14T08:45:16Z</time>
      </trkpt>
      <trkpt lat="47.1531" lon="-1.2424">
        <ele>73</ele>
        <time>2023-11-14T08:48:30Z</time>
      </trkpt>
      <trkpt lat="47.15388" lon="-1.2427">
        <ele>77</ele>
        <time>2023-11-14T08:50:18Z</time>
      </trkpt>
      <trkpt lat="47.15371" lon="-1.24493">
        <ele>69</ele>
        <time>2023-11-14T08:53:41Z</time>
      </trkpt>
      <trkpt lat="47.15286" lon="-1.2487">
        <ele>58</ele>
        <time>2023-11-14T08:59:42Z</time>
      </trkpt>
      <trkpt lat="47.1538" lon="-1.24901">
        <ele>57</ele>
        <time>2023-11-14T09:01:50Z</time>
      </trkpt>
      <trkpt lat="47.15438" lon="-1.24956">
        <ele>53</ele>
        <time>2023-11-14T09:03:22Z</time>
      </trkpt>
      <trkpt lat="47.15508" lon="-1.25004">
        <ele>50</ele>
        <time>2023-11-14T09:05:05Z</time>
      </trkpt>
      <trkpt lat="47.1552" lon="-1.25085">
        <ele>49</ele>
        <time>2023-11-14T09:06:21Z</time>
      </trkpt>
      <trkpt lat="47.15639" lon="-1.25124">
        <ele>48</ele>
        <time>2023-11-14T09:09:03Z</time>
      </trkpt>
      <trkpt lat="47.1561" lon="-1.25205">
        <ele>47</ele>
        <time>2023-11-14T09:10:26Z</time>
      </trkpt>
      <trkpt lat="47.15707" lon="-1.25278">
        <ele>46</ele>
        <time>2023-11-14T09:12:52Z</time>
      </trkpt>
      <trkpt lat="47.15803" lon="-1.25433">
        <ele>47</ele>
        <time>2023-11-14T09:16:02Z</time>
      </trkpt>
      <trkpt lat="47.15879" lon="-1.25574">
        <ele>42</ele>
        <time>2023-11-14T09:18:45Z</time>
      </trkpt>
      <trkpt lat="47.15978" lon="-1.25733">
        <ele>37</ele>
        <time>2023-11-14T09:22:01Z</time>
      </trkpt>
      <trkpt lat="47.15975" lon="-1.26012">
        <ele>37</ele>
        <time>2023-11-14T09:26:14Z</time>
      </trkpt>
      <trkpt lat="47.15943" lon="-1.26029">
        <ele>35</ele>
        <time>2023-11-14T09:27:00Z</time>
      </trkpt>
      <trkpt lat="47.15835" lon="-1.26179">
        <ele>33</ele>
        <time>2023-11-14T09:30:18Z</time>
      </trkpt>
      <trkpt lat="47.16042" lon="-1.26334">
        <ele>47</ele>
        <time>2023-11-14T09:35:28Z</time>
      </trkpt>
      <trkpt lat="47.16162" lon="-1.26385">
        <ele>54</ele>
        <time>2023-11-14T09:38:14Z</time>
      </trkpt>
      <trkpt lat="47.16287" lon="-1.26493">
        <ele>57</ele>
        <time>2023-11-14T09:41:28Z</time>
      </trkpt>
      <trkpt lat="47.16427" lon="-1.2669">
        <ele>62</ele>
        <time>2023-11-14T09:45:46Z</time>
      </trkpt>
      <trkpt lat="47.16594" lon="-1.26484">
        <ele>67</ele>
        <time>2023-11-14T09:50:37Z</time>
      </trkpt>
      <trkpt lat="47.16678" lon="-1.26454">
        <ele>71</ele>
        <time>2023-11-14T09:52:33Z</time>
      </trkpt>
      <trkpt lat="47.16742" lon="-1.26609">
        <ele>74</ele>
        <time>2023-11-14T09:55:17Z</time>
      </trkpt>
      <trkpt lat="47.16707" lon="-1.26694">
        <ele>73</ele>
        <time>2023-11-14T09:56:47Z</time>
      </trkpt>
    </trkseg>
  </trk>
</gpx>